createdAt,value
2019-06-27T00:00:09.332Z,65.51
2019-06-27T00:01:09.309Z,65.21
2019-06-27T00:02:09.298Z,65.31
2019-06-27T00:03:09.296Z,65.21
2019-06-27T00:04:09.275Z,65.01
2019-06-27T00:05:09.289Z,65.05
2019-06-27T00:06:09.272Z,64.61
2019-06-27T00:07:09.244Z,66.20
2019-06-27T00:08:09.233Z,64.51
2019-06-27T00:09:09.219Z,64.81
2019-06-27T00:10:09.211Z,64.61
2019-06-27T00:11:09.219Z,64.51
2019-06-27T00:12:09.190Z,64.72
2019-06-27T00:13:09.180Z,66.11
2019-06-27T00:14:09.167Z,65.74
2019-06-27T00:15:09.162Z,65.84
2019-06-27T00:16:09.227Z,65.61
2019-06-27T00:17:09.136Z,65.84
2019-06-27T00:18:09.127Z,65.71
2019-06-27T00:19:09.116Z,65.01
2019-06-27T00:20:09.105Z,65.01
2019-06-27T00:21:09.113Z,65.51
2019-06-27T00:22:09.093Z,65.61
2019-06-27T00:23:09.072Z,66.64
2019-06-27T00:24:09.061Z,66.94
2019-06-27T00:25:09.066Z,66.53
2019-06-27T00:26:09.040Z,66.64
2019-06-27T00:27:09.031Z,66.67
2019-06-27T00:28:09.021Z,66.57
2019-06-27T00:29:09.009Z,66.67
2019-06-27T00:30:09.021Z,67.07
2019-06-27T00:31:08.990Z,67.47
2019-06-27T00:32:08.974Z,67.20
2019-06-27T00:33:08.963Z,66.80
2019-06-27T00:34:08.954Z,67.36
2019-06-27T00:35:08.944Z,66.87
2019-06-27T00:36:08.958Z,66.44
2019-06-27T00:37:08.923Z,66.87
2019-06-27T00:38:08.913Z,66.87
2019-06-27T00:39:08.897Z,67.36
2019-06-27T00:40:08.925Z,67.20
2019-06-27T00:41:08.878Z,66.40
2019-06-27T00:42:08.867Z,68.03
2019-06-27T00:43:08.857Z,67.43
2019-06-27T00:44:08.874Z,68.13
2019-06-27T00:45:08.852Z,67.63
2019-06-27T00:46:08.856Z,67.73
2019-06-27T00:47:08.816Z,67.63
2019-06-27T00:48:08.801Z,67.43
2019-06-27T00:49:08.790Z,67.10
2019-06-27T00:50:08.781Z,66.60
2019-06-27T00:51:08.772Z,67.10
2019-06-27T00:52:08.783Z,66.53
2019-06-27T00:53:08.749Z,67.33
2019-06-27T00:54:08.745Z,67.13
2019-06-27T00:55:08.726Z,66.93
2019-06-27T00:56:08.729Z,67.83
2019-06-27T00:57:13.817Z,67.57
2019-06-27T00:58:09.711Z,67.93
2019-06-27T00:59:08.682Z,67.86
2019-06-27T01:00:08.673Z,68.06
2019-06-27T01:01:08.659Z,67.73
2019-06-27T01:02:08.651Z,67.76
2019-06-27T01:03:08.658Z,68.56
2019-06-27T01:04:08.636Z,68.26
2019-06-27T01:05:08.627Z,68.16
2019-06-27T01:06:08.609Z,68.26
2019-06-27T01:07:08.596Z,68.46
2019-06-27T01:08:08.611Z,68.26
2019-06-27T01:09:08.574Z,68.26
2019-06-27T01:10:08.563Z,68.36
2019-06-27T01:11:08.574Z,68.06
2019-06-27T01:12:08.545Z,68.16
2019-06-27T01:13:08.531Z,68.76
2019-06-27T01:14:08.541Z,69.26
2019-06-27T01:15:08.509Z,68.59
2019-06-27T01:16:08.516Z,68.99
2019-06-27T01:17:08.490Z,69.20
2019-06-27T01:18:08.477Z,69.49
2019-06-27T01:19:08.475Z,69.99
2019-06-27T01:20:08.463Z,70.03
2019-06-27T01:21:08.464Z,69.82
2019-06-27T01:22:08.435Z,69.62
2019-06-27T01:23:08.422Z,69.62
2019-06-27T01:24:08.417Z,69.49
2019-06-27T01:25:08.401Z,69.53
2019-06-27T01:26:08.420Z,69.53
2019-06-27T01:27:08.378Z,70.03
2019-06-27T01:28:08.371Z,70.03
2019-06-27T01:29:08.365Z,69.82
2019-06-27T01:30:08.346Z,70.23
2019-06-27T01:31:08.356Z,70.32
2019-06-27T01:32:08.325Z,70.83
2019-06-27T01:33:08.316Z,70.12
2019-06-27T01:34:08.306Z,70.53
2019-06-27T01:35:08.293Z,70.36
2019-06-27T01:36:08.301Z,70.62
2019-06-27T01:37:08.272Z,70.56
2019-06-27T01:38:08.259Z,70.96
2019-06-27T01:39:08.251Z,71.26
2019-06-27T01:40:08.240Z,71.16
2019-06-27T01:41:08.247Z,71.46
2019-06-27T01:42:08.216Z,71.99
2019-06-27T01:43:08.205Z,71.89
2019-06-27T01:44:08.214Z,72.49
2019-06-27T01:45:08.183Z,72.69
2019-06-27T01:46:08.175Z,72.59
2019-06-27T01:47:08.164Z,72.59
2019-06-27T01:48:08.154Z,72.39
2019-06-27T01:49:08.139Z,72.09
2019-06-27T01:50:08.149Z,71.99
2019-06-27T01:51:08.123Z,72.39
2019-06-27T01:52:08.110Z,71.19
2019-06-27T01:53:08.115Z,71.89
2019-06-27T01:54:08.096Z,71.99
2019-06-27T01:55:08.076Z,71.49
2019-06-27T01:56:08.066Z,71.09
2019-06-27T01:57:08.053Z,71.39
2019-06-27T01:58:08.059Z,71.89
2019-06-27T01:59:08.038Z,69.79
2019-06-27T02:00:08.024Z,70.09
2019-06-27T02:01:08.010Z,70.89
2019-06-27T02:02:07.999Z,69.59
2019-06-27T02:03:07.988Z,69.93
2019-06-27T02:04:07.997Z,69.69
2019-06-27T02:05:07.966Z,69.69
2019-06-27T02:06:07.957Z,70.59
2019-06-27T02:07:07.955Z,70.83
2019-06-27T02:08:07.932Z,69.73
2019-06-27T02:09:08.100Z,70.03
2019-06-27T02:10:07.912Z,70.23
2019-06-27T02:11:07.906Z,71.12
2019-06-27T02:12:07.888Z,71.86
2019-06-27T02:13:07.877Z,71.96
2019-06-27T02:14:07.867Z,72.36
2019-06-27T02:15:07.875Z,72.89
2019-06-27T02:16:07.883Z,72.76
2019-06-27T02:17:07.832Z,71.62
2019-06-27T02:18:07.820Z,71.83
2019-06-27T02:19:07.812Z,71.62
2019-06-27T02:20:07.803Z,71.42
2019-06-27T02:21:07.807Z,71.83
2019-06-27T02:22:07.778Z,71.96
2019-06-27T02:23:07.769Z,72.36
2019-06-27T02:24:07.761Z,72.56
2019-06-27T02:25:07.744Z,72.46
2019-06-27T02:26:07.757Z,72.86
2019-06-27T02:27:07.725Z,73.00
2019-06-27T02:28:07.709Z,72.96
2019-06-27T02:29:07.697Z,72.46
2019-06-27T02:30:07.699Z,72.46
2019-06-27T02:31:07.709Z,72.46
2019-06-27T02:32:07.667Z,72.03
2019-06-27T02:33:07.664Z,70.59
2019-06-27T02:34:07.660Z,69.36
2019-06-27T02:35:07.642Z,69.26
2019-06-27T02:36:07.630Z,70.56
2019-06-27T02:37:07.782Z,69.79
2019-06-27T02:38:07.601Z,70.39
2019-06-27T02:39:07.590Z,71.12
2019-06-27T02:40:07.602Z,72.13
2019-06-27T02:41:07.568Z,72.46
2019-06-27T02:42:07.562Z,73.16
2019-06-27T02:43:07.568Z,73.46
2019-06-27T02:44:07.556Z,73.90
2019-06-27T02:45:07.533Z,74.60
2019-06-27T02:46:07.541Z,74.60
2019-06-27T02:47:07.505Z,75.43
2019-06-27T02:48:07.520Z,75.04
2019-06-27T02:49:07.481Z,75.34
2019-06-27T02:50:07.488Z,75.93
2019-06-27T02:51:07.458Z,75.84
2019-06-27T02:52:07.447Z,75.63
2019-06-27T02:53:07.463Z,75.40
2019-06-27T02:54:07.421Z,75.74
2019-06-27T02:55:07.425Z,76.24
2019-06-27T02:56:07.401Z,76.14
2019-06-27T02:57:07.410Z,76.24
2019-06-27T02:58:27.876Z,75.63
2019-06-27T02:59:08.366Z,76.24
2019-06-27T03:00:07.370Z,75.93
2019-06-27T03:01:07.345Z,75.74
2019-06-27T03:02:07.333Z,75.54
2019-06-27T03:03:07.342Z,75.63
2019-06-27T03:04:07.310Z,75.34
2019-06-27T03:05:07.300Z,75.93
2019-06-27T03:06:07.284Z,76.14
2019-06-27T03:07:07.276Z,75.84
2019-06-27T03:08:07.267Z,75.93
2019-06-27T03:09:07.272Z,76.43
2019-06-27T03:10:07.243Z,75.54
2019-06-27T03:11:07.229Z,74.73
2019-06-27T03:12:07.217Z,75.43
2019-06-27T03:13:07.209Z,75.04
2019-06-27T03:14:07.197Z,75.04
2019-06-27T03:15:07.221Z,75.04
2019-06-27T03:16:07.176Z,75.67
2019-06-27T03:17:07.166Z,75.57
2019-06-27T03:18:07.158Z,76.11
2019-06-27T03:19:07.164Z,76.07
2019-06-27T03:20:07.130Z,76.37
2019-06-27T03:21:07.131Z,75.87
2019-06-27T03:22:07.285Z,75.37
2019-06-27T03:23:07.102Z,75.67
2019-06-27T03:24:07.092Z,75.67
2019-06-27T03:25:07.103Z,74.63
2019-06-27T03:26:07.068Z,73.30
2019-06-27T03:27:07.078Z,73.23
2019-06-27T03:28:07.212Z,73.73
2019-06-27T03:29:07.037Z,73.77
2019-06-27T03:30:07.180Z,74.37
2019-06-27T03:31:07.016Z,74.77
2019-06-27T03:32:07.003Z,74.37
2019-06-27T03:33:07.005Z,74.67
2019-06-27T03:34:07.000Z,75.07
2019-06-27T03:35:06.967Z,75.47
2019-06-27T03:36:06.961Z,75.10
2019-06-27T03:37:06.947Z,75.21
2019-06-27T03:38:06.943Z,75.10
2019-06-27T03:39:06.928Z,75.10
2019-06-27T03:40:06.935Z,75.01
2019-06-27T03:41:06.915Z,75.10
2019-06-27T03:42:06.892Z,75.54
2019-06-27T03:43:06.923Z,76.11
2019-06-27T03:44:06.875Z,74.90
2019-06-27T03:45:06.866Z,75.51
2019-06-27T03:46:07.028Z,75.51
2019-06-27T03:47:06.840Z,75.14
2019-06-27T03:48:06.835Z,75.74
2019-06-27T03:49:06.824Z,75.84
2019-06-27T03:50:06.808Z,75.54
2019-06-27T03:51:06.797Z,76.25
2019-06-27T03:52:06.861Z,76.75
2019-06-27T03:53:06.807Z,76.34
2019-06-27T03:54:06.763Z,76.21
2019-06-27T03:55:06.758Z,76.01
2019-06-27T03:56:06.742Z,75.31
2019-06-27T03:57:06.731Z,74.37
2019-06-27T03:58:06.725Z,74.37
2019-06-27T03:59:12.824Z,74.07
2019-06-27T04:00:07.722Z,73.67
2019-06-27T04:01:06.691Z,73.86
2019-06-27T04:02:06.686Z,73.97
2019-06-27T04:03:06.669Z,73.57
2019-06-27T04:04:06.661Z,73.86
2019-06-27T04:05:06.673Z,73.70
2019-06-27T04:06:06.637Z,73.70
2019-06-27T04:07:06.641Z,73.90
2019-06-27T04:08:06.616Z,74.10
2019-06-27T04:09:06.630Z,74.01
2019-06-27T04:10:06.592Z,74.60
2019-06-27T04:11:06.613Z,74.30
2019-06-27T04:12:06.591Z,74.20
2019-06-27T04:13:06.558Z,74.24
2019-06-27T04:14:06.558Z,74.30
2019-06-27T04:15:06.580Z,74.40
2019-06-27T04:16:06.527Z,74.30
2019-06-27T04:17:06.514Z,73.94
2019-06-27T04:18:06.503Z,74.60
2019-06-27T04:19:06.491Z,73.90
2019-06-27T04:20:06.498Z,73.90
2019-06-27T04:21:06.473Z,73.90
2019-06-27T04:22:06.465Z,73.77
2019-06-27T04:23:06.448Z,73.47
2019-06-27T04:24:06.445Z,73.50
2019-06-27T04:25:06.423Z,73.80
2019-06-27T04:26:06.442Z,73.90
2019-06-27T04:27:06.415Z,73.86
2019-06-27T04:28:06.410Z,73.50
2019-06-27T04:29:06.549Z,74.40
2019-06-27T04:30:06.376Z,74.01
2019-06-27T04:31:06.368Z,74.40
2019-06-27T04:32:06.357Z,73.97
2019-06-27T04:33:06.338Z,73.70
2019-06-27T04:34:06.329Z,74.10
2019-06-27T04:35:06.343Z,73.86
2019-06-27T04:36:06.334Z,73.77
2019-06-27T04:37:06.294Z,73.77
2019-06-27T04:38:06.284Z,73.36
2019-06-27T04:39:06.272Z,73.27
2019-06-27T04:40:06.287Z,73.57
2019-06-27T04:41:06.246Z,73.27
2019-06-27T04:42:06.241Z,73.36
2019-06-27T04:43:06.554Z,73.57
2019-06-27T04:44:06.214Z,73.47
2019-06-27T04:45:06.209Z,73.36
2019-06-27T04:46:06.232Z,73.86
2019-06-27T04:47:06.179Z,73.27
2019-06-27T04:48:06.168Z,73.20
2019-06-27T04:49:06.157Z,73.47
2019-06-27T04:50:06.161Z,72.77
2019-06-27T04:51:06.137Z,72.63
2019-06-27T04:52:06.153Z,72.66
2019-06-27T04:53:06.117Z,72.56
2019-06-27T04:54:06.111Z,72.56
2019-06-27T04:55:06.087Z,72.86
2019-06-27T04:56:06.078Z,73.40
2019-06-27T04:57:06.067Z,73.90
2019-06-27T04:58:06.091Z,73.90
2019-06-27T04:59:06.046Z,73.77
2019-06-27T05:00:06.073Z,73.16
2019-06-27T05:01:06.044Z,72.66
2019-06-27T05:02:06.016Z,71.83
2019-06-27T05:03:06.001Z,71.53
2019-06-27T05:04:06.042Z,71.30
2019-06-27T05:05:05.979Z,71.19
2019-06-27T05:06:05.987Z,71.69
2019-06-27T05:07:05.960Z,71.83
2019-06-27T05:08:05.964Z,72.03
2019-06-27T05:09:05.943Z,71.63
2019-06-27T05:10:05.953Z,71.03
2019-06-27T05:11:05.919Z,71.69
2019-06-27T05:12:05.905Z,71.83
2019-06-27T05:13:05.912Z,71.93
2019-06-27T05:14:05.880Z,72.63
2019-06-27T05:15:05.871Z,72.23
2019-06-27T05:16:05.878Z,71.93
2019-06-27T05:17:05.849Z,71.59
2019-06-27T05:18:05.865Z,70.26
2019-06-27T05:19:05.828Z,68.09
2019-06-27T05:20:05.818Z,67.82
2019-06-27T05:21:05.807Z,69.02
2019-06-27T05:22:05.796Z,69.16
2019-06-27T05:23:05.785Z,69.66
2019-06-27T05:24:05.799Z,69.16
2019-06-27T05:25:05.761Z,70.16
2019-06-27T05:26:05.782Z,69.76
2019-06-27T05:27:05.748Z,69.76
2019-06-27T05:28:05.741Z,70.06
2019-06-27T05:29:05.762Z,70.09
2019-06-27T05:30:09.910Z,70.09
2019-06-27T05:31:05.694Z,69.99
2019-06-27T05:32:05.683Z,70.09
2019-06-27T05:33:05.676Z,70.89
2019-06-27T05:34:05.666Z,70.39
2019-06-27T05:35:05.651Z,70.19
2019-06-27T05:36:05.683Z,70.09
2019-06-27T05:37:05.637Z,69.59
2019-06-27T05:38:05.618Z,69.99
2019-06-27T05:39:05.618Z,69.76
2019-06-27T05:40:05.594Z,69.79
2019-06-27T05:41:05.584Z,69.66
2019-06-27T05:42:05.594Z,69.16
2019-06-27T05:43:05.562Z,68.29
2019-06-27T05:44:05.551Z,67.79
2019-06-27T05:45:05.538Z,67.49
2019-06-27T05:46:05.551Z,67.89
2019-06-27T05:47:05.517Z,68.09
2019-06-27T05:48:05.532Z,67.93
2019-06-27T05:49:05.501Z,68.13
2019-06-27T05:50:05.486Z,68.82
2019-06-27T05:51:05.517Z,68.66
2019-06-27T05:52:05.464Z,69.96
2019-06-27T05:53:05.474Z,69.66
2019-06-27T05:54:05.444Z,69.06
2019-06-27T05:55:05.432Z,69.16
2019-06-27T05:56:05.465Z,69.56
2019-06-27T05:57:05.407Z,69.66
2019-06-27T05:58:05.403Z,69.79
2019-06-27T05:59:05.387Z,69.16
2019-06-27T06:00:05.383Z,69.66
2019-06-27T06:01:05.368Z,69.16
2019-06-27T06:02:05.418Z,69.59
2019-06-27T06:03:05.369Z,69.66
2019-06-27T06:04:05.340Z,70.06
2019-06-27T06:05:05.388Z,69.16
2019-06-27T06:06:05.384Z,69.66
2019-06-27T06:07:05.336Z,69.16
2019-06-27T06:08:05.301Z,69.36
2019-06-27T06:09:05.302Z,68.76
2019-06-27T06:10:05.282Z,68.55
2019-06-27T06:11:05.289Z,68.96
2019-06-27T06:12:05.270Z,68.73
2019-06-27T06:13:05.272Z,68.43
2019-06-27T06:14:05.270Z,68.13
2019-06-27T06:15:05.232Z,67.63
2019-06-27T06:16:05.243Z,68.32
2019-06-27T06:17:05.203Z,67.69
2019-06-27T06:18:05.260Z,68.39
2019-06-27T06:19:05.177Z,67.89
2019-06-27T06:20:05.169Z,67.56
2019-06-27T06:21:05.230Z,67.59
2019-06-27T06:22:05.422Z,67.26
2019-06-27T06:23:05.236Z,67.26
2019-06-27T06:24:05.187Z,66.76
2019-06-27T06:25:05.115Z,66.86
2019-06-27T06:26:05.209Z,67.06
2019-06-27T06:27:05.142Z,66.56
2019-06-27T06:28:05.167Z,66.13
2019-06-27T06:29:05.082Z,65.30
2019-06-27T06:30:05.057Z,64.67
2019-06-27T06:31:05.046Z,63.71
2019-06-27T06:32:05.096Z,62.45
2019-06-27T06:33:05.101Z,59.78
2019-06-27T06:34:05.534Z,57.31
2019-06-27T06:35:05.031Z,55.24
2019-06-27T06:36:04.996Z,53.16
2019-06-27T06:37:08.010Z,51.42
2019-06-27T06:38:04.974Z,50.19
2019-06-27T06:39:04.979Z,49.35
2019-06-27T06:40:05.037Z,47.60
2019-06-27T06:41:04.941Z,46.89
2019-06-27T06:42:04.923Z,46.59
2019-06-27T06:43:05.038Z,45.68
2019-06-27T06:44:04.990Z,44.78
2019-06-27T06:45:04.897Z,45.35
2019-06-27T06:46:04.945Z,43.73
2019-06-27T06:47:04.879Z,43.00
2019-06-27T06:48:04.881Z,42.47
2019-06-27T06:49:04.882Z,41.27
2019-06-27T06:50:04.854Z,40.19
2019-06-27T06:51:04.831Z,41.02
2019-06-27T06:52:05.028Z,40.61
2019-06-27T06:53:04.820Z,40.56
2019-06-27T06:54:04.801Z,40.27
2019-06-27T06:55:04.787Z,41.71
2019-06-27T06:56:04.778Z,42.41
2019-06-27T06:57:04.776Z,42.39
2019-06-27T06:58:04.780Z,40.61
2019-06-27T06:59:04.751Z,39.90
2019-06-27T07:00:04.740Z,40.08
2019-06-27T07:01:04.726Z,39.84
2019-06-27T07:02:04.720Z,38.63
2019-06-27T07:03:04.725Z,37.75
2019-06-27T07:04:04.805Z,37.62
2019-06-27T07:05:04.695Z,37.71
2019-06-27T07:06:04.681Z,36.93
2019-06-27T07:07:04.662Z,37.62
2019-06-27T07:08:04.677Z,38.65
2019-06-27T07:09:04.653Z,39.19
2019-06-27T07:10:04.653Z,40.64
2019-06-27T07:11:04.628Z,39.47
2019-06-27T07:12:04.615Z,40.06
2019-06-27T07:13:04.606Z,39.54
2019-06-27T07:14:04.614Z,39.06
2019-06-27T07:15:04.584Z,39.22
2019-06-27T07:16:04.576Z,38.82
2019-06-27T07:17:04.563Z,38.04
2019-06-27T07:18:04.558Z,37.52
2019-06-27T07:19:04.545Z,37.04
2019-06-27T07:20:04.611Z,38.75
2019-06-27T07:21:04.529Z,38.26
2019-06-27T07:22:04.518Z,38.06
2019-06-27T07:23:04.520Z,38.67
2019-06-27T07:24:04.503Z,39.07
2019-06-27T07:25:04.498Z,39.06
2019-06-27T07:26:04.496Z,37.37
2019-06-27T07:27:04.486Z,39.00
2019-06-27T07:28:04.463Z,40.31
2019-06-27T07:29:04.448Z,39.70
2019-06-27T07:30:04.440Z,39.51
2019-06-27T07:31:17.208Z,38.31
2019-06-27T07:32:05.413Z,38.49
2019-06-27T07:33:04.401Z,38.86
2019-06-27T07:34:04.401Z,37.77
2019-06-27T07:35:04.387Z,37.59
2019-06-27T07:36:04.413Z,38.60
2019-06-27T07:37:04.361Z,39.07
2019-06-27T07:38:04.354Z,39.25
2019-06-27T07:39:04.629Z,38.70
2019-06-27T07:40:04.342Z,39.11
2019-06-27T07:41:04.326Z,39.11
2019-06-27T07:42:04.346Z,38.53
2019-06-27T07:43:04.312Z,39.31
2019-06-27T07:44:04.289Z,40.00
2019-06-27T07:45:04.289Z,38.53
2019-06-27T07:46:04.306Z,38.60
2019-06-27T07:47:04.277Z,38.88
2019-06-27T07:48:04.257Z,37.77
2019-06-27T07:49:04.249Z,37.95
2019-06-27T07:50:04.232Z,37.45
2019-06-27T07:51:04.224Z,36.36
2019-06-27T07:52:04.236Z,36.36
2019-06-27T07:53:04.198Z,37.08
2019-06-27T07:54:04.193Z,37.77
2019-06-27T07:55:04.194Z,37.61
2019-06-27T07:56:04.174Z,37.59
2019-06-27T07:57:04.170Z,37.06
2019-06-27T07:58:04.173Z,36.55
2019-06-27T07:59:04.141Z,35.45
2019-06-27T08:00:04.150Z,35.04
2019-06-27T08:01:04.120Z,34.94
2019-06-27T08:02:04.111Z,34.94
2019-06-27T08:03:04.130Z,34.36
2019-06-27T08:04:04.096Z,34.38
2019-06-27T08:05:04.078Z,34.65
2019-06-27T08:06:04.067Z,34.75
2019-06-27T08:07:04.055Z,35.16
2019-06-27T08:08:04.046Z,35.84
2019-06-27T08:09:04.056Z,34.96
2019-06-27T08:10:04.035Z,35.17
2019-06-27T08:11:04.020Z,35.58
2019-06-27T08:12:04.007Z,35.28
2019-06-27T08:13:03.996Z,35.19
2019-06-27T08:14:03.984Z,35.45
2019-06-27T08:15:04.007Z,34.36
2019-06-27T08:16:03.970Z,34.32
2019-06-27T08:17:03.967Z,32.45
2019-06-27T08:18:03.945Z,32.53
2019-06-27T08:19:03.935Z,31.64
2019-06-27T08:20:03.930Z,32.06
2019-06-27T08:21:03.953Z,32.73
2019-06-27T08:22:03.903Z,33.25
2019-06-27T08:23:03.891Z,34.68
2019-06-27T08:24:03.882Z,34.97
2019-06-27T08:25:03.972Z,34.08
2019-06-27T08:26:03.870Z,34.94
2019-06-27T08:27:03.874Z,34.29
2019-06-27T08:28:03.855Z,35.91
2019-06-27T08:29:03.925Z,36.28
2019-06-27T08:30:07.182Z,35.40
2019-06-27T08:31:03.811Z,34.70
2019-06-27T08:32:03.801Z,35.01
2019-06-27T08:33:03.805Z,34.99
2019-06-27T08:34:03.785Z,34.42
2019-06-27T08:35:03.818Z,35.42
2019-06-27T08:36:03.926Z,35.73
2019-06-27T08:37:03.758Z,36.71
2019-06-27T08:38:03.748Z,36.41
2019-06-27T08:39:03.735Z,36.43
2019-06-27T08:40:03.730Z,36.47
2019-06-27T08:41:03.713Z,36.98
2019-06-27T08:42:03.731Z,37.86
2019-06-27T08:43:03.699Z,37.68
2019-06-27T08:44:03.686Z,37.68
2019-06-27T08:45:03.678Z,38.90
2019-06-27T08:46:03.682Z,39.80
2019-06-27T08:47:03.653Z,40.61
2019-06-27T08:48:03.637Z,40.03
2019-06-27T08:49:03.640Z,40.17
2019-06-27T08:50:03.626Z,41.49
2019-06-27T08:51:03.610Z,42.69
2019-06-27T08:52:03.617Z,42.13
2019-06-27T08:53:03.596Z,43.01
2019-06-27T08:54:03.636Z,43.52
2019-06-27T08:55:03.567Z,43.17
2019-06-27T08:56:03.573Z,43.47
2019-06-27T08:57:03.543Z,44.26
2019-06-27T08:58:03.570Z,43.77
2019-06-27T08:59:03.719Z,44.46
2019-06-27T09:00:03.519Z,44.26
2019-06-27T09:01:03.503Z,43.77
2019-06-27T09:02:08.297Z,44.68
2019-06-27T09:03:04.513Z,44.09
2019-06-27T09:04:03.473Z,43.37
2019-06-27T09:05:03.462Z,43.07
2019-06-27T09:06:03.471Z,43.37
2019-06-27T09:07:03.450Z,43.07
2019-06-27T09:08:03.430Z,43.66
2019-06-27T09:09:03.468Z,43.96
2019-06-27T09:10:03.415Z,43.55
2019-06-27T09:11:03.429Z,43.23
2019-06-27T09:12:03.411Z,42.72
2019-06-27T09:13:03.375Z,42.54
2019-06-27T09:14:03.383Z,43.27
2019-06-27T09:15:03.362Z,44.18
2019-06-27T09:16:03.364Z,44.87
2019-06-27T09:17:03.853Z,45.57
2019-06-27T09:18:03.330Z,45.51
2019-06-27T09:19:03.321Z,45.83
2019-06-27T09:20:03.302Z,45.73
2019-06-27T09:21:03.293Z,46.03
2019-06-27T09:22:03.416Z,46.12
2019-06-27T09:23:03.279Z,45.61
2019-06-27T09:24:03.267Z,45.81
2019-06-27T09:25:03.265Z,44.42
2019-06-27T09:26:03.265Z,43.91
2019-06-27T09:27:03.230Z,44.20
2019-06-27T09:28:03.266Z,43.69
2019-06-27T09:29:03.208Z,44.56
2019-06-27T09:30:03.197Z,42.97
2019-06-27T09:31:03.206Z,42.88
2019-06-27T09:32:03.178Z,43.87
2019-06-27T09:33:03.343Z,43.37
2019-06-27T09:34:03.653Z,42.48
2019-06-27T09:35:03.271Z,42.78
2019-06-27T09:36:03.130Z,42.78
2019-06-27T09:37:03.140Z,42.58
2019-06-27T09:38:03.117Z,42.19
2019-06-27T09:39:03.119Z,42.60
2019-06-27T09:40:03.122Z,43.49
2019-06-27T09:41:03.092Z,42.62
2019-06-27T09:42:03.434Z,43.02
2019-06-27T09:43:03.065Z,43.31
2019-06-27T09:44:03.054Z,43.04
2019-06-27T09:45:03.073Z,43.04
2019-06-27T09:46:03.057Z,43.35
2019-06-27T09:47:03.018Z,43.73
2019-06-27T09:48:03.006Z,43.24
2019-06-27T09:49:03.008Z,43.51
2019-06-27T09:50:02.994Z,42.60
2019-06-27T09:51:02.976Z,42.97
2019-06-27T09:52:03.373Z,41.69
2019-06-27T09:53:02.965Z,41.99
2019-06-27T09:54:02.939Z,40.61
2019-06-27T09:55:02.940Z,40.61
2019-06-27T09:56:02.922Z,41.08
2019-06-27T09:57:02.924Z,40.98
2019-06-27T09:58:02.928Z,41.28
2019-06-27T09:59:02.887Z,40.80
2019-06-27T10:00:02.909Z,40.80
2019-06-27T10:01:05.856Z,40.50
2019-06-27T10:02:02.864Z,40.70
2019-06-27T10:03:02.872Z,40.80
2019-06-27T10:04:04.250Z,40.50
2019-06-27T10:05:02.945Z,40.90
2019-06-27T10:06:03.051Z,40.90
2019-06-27T10:07:02.857Z,41.52
2019-06-27T10:08:02.799Z,41.52
2019-06-27T10:09:02.795Z,41.61
2019-06-27T10:10:02.788Z,41.33
2019-06-27T10:11:02.761Z,42.64
2019-06-27T10:12:02.771Z,42.44
2019-06-27T10:13:02.745Z,41.36
2019-06-27T10:14:02.730Z,41.33
2019-06-27T10:15:02.923Z,40.45
2019-06-27T10:16:02.711Z,40.92
2019-06-27T10:17:02.873Z,40.90
2019-06-27T10:18:02.743Z,41.00
2019-06-27T10:19:02.678Z,40.80
2019-06-27T10:20:02.663Z,41.31
2019-06-27T10:21:02.666Z,41.02
2019-06-27T10:22:24.440Z,41.30
2019-06-27T10:23:02.654Z,40.80
2019-06-27T10:24:02.644Z,40.80
2019-06-27T10:25:02.731Z,39.64
2019-06-27T10:26:02.602Z,40.84
2019-06-27T10:27:02.644Z,40.74
2019-06-27T10:28:02.580Z,41.63
2019-06-27T10:29:02.633Z,40.84
2019-06-27T10:30:02.787Z,40.64
2019-06-27T10:31:02.545Z,41.53
2019-06-27T10:32:02.534Z,41.12
2019-06-27T10:33:02.564Z,40.92
2019-06-27T10:34:02.541Z,39.83
2019-06-27T10:35:02.503Z,40.11
2019-06-27T10:36:02.493Z,39.62
2019-06-27T10:37:02.513Z,39.62
2019-06-27T10:38:02.477Z,39.91
2019-06-27T10:39:02.514Z,40.41
2019-06-27T10:40:02.455Z,40.53
2019-06-27T10:41:02.446Z,39.62
2019-06-27T10:42:02.428Z,40.11
2019-06-27T10:43:02.421Z,40.69
2019-06-27T10:44:02.427Z,40.29
2019-06-27T10:45:02.405Z,40.56
2019-06-27T10:46:02.541Z,39.68
2019-06-27T10:47:02.705Z,39.18
2019-06-27T10:48:02.378Z,39.20
2019-06-27T10:49:02.514Z,38.79
2019-06-27T10:50:02.502Z,38.81
2019-06-27T10:51:02.850Z,39.50
2019-06-27T10:52:02.344Z,38.00
2019-06-27T10:53:02.349Z,38.98
2019-06-27T10:54:02.396Z,39.48
2019-06-27T10:55:02.292Z,37.72
2019-06-27T10:56:02.280Z,39.00
2019-06-27T10:57:02.271Z,39.60
2019-06-27T10:58:02.259Z,39.62
2019-06-27T10:59:02.310Z,38.81
2019-06-27T11:00:02.257Z,39.42
2019-06-27T11:01:02.271Z,39.32
2019-06-27T11:02:02.221Z,38.73
2019-06-27T11:03:14.859Z,39.04
2019-06-27T11:04:03.194Z,39.24
2019-06-27T11:05:02.185Z,39.64
2019-06-27T11:06:02.190Z,40.01
2019-06-27T11:07:02.161Z,38.13
2019-06-27T11:08:02.210Z,38.25
2019-06-27T11:09:02.188Z,39.36
2019-06-27T11:10:02.154Z,39.36
2019-06-27T11:11:02.149Z,40.05
2019-06-27T11:12:02.271Z,39.75
2019-06-27T11:13:02.156Z,39.24
2019-06-27T11:14:02.085Z,39.64
2019-06-27T11:15:02.076Z,39.36
2019-06-27T11:16:02.070Z,39.04
2019-06-27T11:17:02.054Z,40.13
2019-06-27T11:18:02.094Z,40.21
2019-06-27T11:19:02.032Z,39.03
2019-06-27T11:20:02.134Z,37.84
2019-06-27T11:21:02.012Z,38.23
2019-06-27T11:22:02.021Z,39.04
2019-06-27T11:23:02.029Z,38.06
2019-06-27T11:24:02.459Z,38.35
2019-06-27T11:25:02.137Z,38.94
2019-06-27T11:26:01.962Z,37.48
2019-06-27T11:27:02.247Z,38.17
2019-06-27T11:28:01.934Z,39.06
2019-06-27T11:29:01.960Z,37.98
2019-06-27T11:30:01.925Z,39.06
2019-06-27T11:31:01.902Z,38.84
2019-06-27T11:32:01.912Z,39.12
2019-06-27T11:33:01.901Z,37.32
2019-06-27T11:34:01.873Z,37.92
2019-06-27T11:35:01.925Z,37.92
2019-06-27T11:36:01.868Z,38.39
2019-06-27T11:37:01.869Z,36.54
2019-06-27T11:38:01.831Z,38.21
2019-06-27T11:39:01.818Z,38.31
2019-06-27T11:40:01.824Z,38.21
2019-06-27T11:41:01.919Z,37.62
2019-06-27T11:42:01.787Z,36.34
2019-06-27T11:43:01.859Z,36.14
2019-06-27T11:44:01.767Z,35.37
2019-06-27T11:45:01.756Z,36.36
2019-06-27T11:46:01.754Z,36.85
2019-06-27T11:47:01.788Z,36.75
2019-06-27T11:48:01.727Z,37.84
2019-06-27T11:49:01.720Z,37.23
2019-06-27T11:50:01.717Z,37.21
2019-06-27T11:51:01.695Z,37.23
2019-06-27T11:52:01.680Z,37.32
2019-06-27T11:53:01.686Z,36.93
2019-06-27T11:54:01.674Z,36.63
2019-06-27T11:55:01.711Z,35.55
2019-06-27T11:56:01.639Z,37.45
2019-06-27T11:57:01.645Z,36.65
2019-06-27T11:58:01.616Z,36.95
2019-06-27T11:59:01.626Z,37.64
2019-06-27T12:00:01.731Z,36.36
2019-06-27T12:01:01.585Z,36.75
2019-06-27T12:02:01.575Z,37.34
2019-06-27T12:03:01.564Z,36.85
2019-06-27T12:04:01.583Z,37.24
2019-06-27T12:05:01.545Z,36.25
2019-06-27T12:06:01.530Z,37.34
2019-06-27T12:07:01.536Z,37.05
2019-06-27T12:08:01.529Z,36.95
2019-06-27T12:09:01.497Z,36.55
2019-06-27T12:10:01.505Z,37.45
2019-06-27T12:11:01.482Z,36.34
2019-06-27T12:12:01.498Z,36.44
2019-06-27T12:13:01.476Z,36.63
2019-06-27T12:14:01.447Z,34.86
2019-06-27T12:15:01.441Z,35.15
2019-06-27T12:16:01.424Z,35.64
2019-06-27T12:17:01.418Z,35.55
2019-06-27T12:18:01.422Z,35.05
2019-06-27T12:19:01.391Z,36.63
2019-06-27T12:20:01.401Z,36.24
2019-06-27T12:21:01.369Z,36.24
2019-06-27T12:22:01.370Z,35.63
2019-06-27T12:23:01.378Z,33.75
2019-06-27T12:24:01.336Z,35.25
2019-06-27T12:25:01.367Z,37.03
2019-06-27T12:26:01.341Z,35.53
2019-06-27T12:27:01.303Z,35.43
2019-06-27T12:28:01.337Z,35.22
2019-06-27T12:29:01.283Z,33.34
2019-06-27T12:30:01.297Z,34.13
2019-06-27T12:31:01.321Z,33.44
2019-06-27T12:32:01.378Z,33.46
2019-06-27T12:33:01.243Z,34.64
2019-06-27T12:34:07.016Z,32.49
2019-06-27T12:35:02.242Z,33.69
2019-06-27T12:36:01.208Z,34.67
2019-06-27T12:37:01.201Z,34.58
2019-06-27T12:38:01.186Z,34.67
2019-06-27T12:39:01.183Z,34.69
2019-06-27T12:40:01.170Z,35.28
2019-06-27T12:41:01.174Z,35.27
2019-06-27T12:42:01.154Z,35.27
2019-06-27T12:43:01.137Z,34.67
2019-06-27T12:44:01.124Z,34.58
2019-06-27T12:45:01.112Z,33.37
2019-06-27T12:46:01.102Z,34.36
2019-06-27T12:47:01.123Z,33.67
2019-06-27T12:48:06.996Z,33.18
2019-06-27T12:49:02.085Z,34.74
2019-06-27T12:50:03.100Z,33.46
2019-06-27T12:51:01.049Z,33.54
2019-06-27T12:52:01.037Z,34.23